createdAt,value
2019-02-12T00:00:14.040Z,21.8
2019-02-12T00:01:10.807Z,21.8
2019-02-12T00:02:13.005Z,21.8
2019-02-12T00:03:17.806Z,21.8
2019-02-12T00:04:17.368Z,21.7
2019-02-12T00:05:15.697Z,21.7
2019-02-12T00:06:19.771Z,21.7
2019-02-12T00:07:27.623Z,21.7
2019-02-12T00:08:25.979Z,21.7
2019-02-12T00:09:31.750Z,21.7
2019-02-12T00:10:31.395Z,21.6
2019-02-12T00:11:28.224Z,21.6
2019-02-12T00:12:29.795Z,21.6
2019-02-12T00:13:27.177Z,21.6
2019-02-12T00:14:25.070Z,21.6
2019-02-12T00:15:23.373Z,21.6
2019-02-12T00:16:21.560Z,21.6
2019-02-12T00:17:17.906Z,21.5
2019-02-12T00:18:16.563Z,21.5
2019-02-12T00:19:13.013Z,21.5
2019-02-12T00:20:09.969Z,21.5
2019-02-12T00:21:11.019Z,21.5
2019-02-12T00:22:13.900Z,21.5
2019-02-12T00:23:11.461Z,21.5
2019-02-12T00:24:17.370Z,21.4
2019-02-12T00:25:15.403Z,21.5
2019-02-12T00:26:11.738Z,21.4
2019-02-12T00:27:09.332Z,21.4
2019-02-12T00:28:06.102Z,21.4
2019-02-12T00:29:03.283Z,21.4
2019-02-12T00:30:01.838Z,21.4
2019-02-12T00:31:03.156Z,21.4
2019-02-12T00:32:01.215Z,21.3
2019-02-12T00:32:58.933Z,21.4
2019-02-12T00:34:01.502Z,21.3
2019-02-12T00:35:09.328Z,21.3
2019-02-12T00:36:13.589Z,21.3
2019-02-12T00:37:16.773Z,21.3
2019-02-12T00:38:14.937Z,21.3
2019-02-12T00:39:12.394Z,21.3
2019-02-12T00:40:08.371Z,21.3
2019-02-12T00:41:05.974Z,21.2
2019-02-12T00:42:02.843Z,21.2
2019-02-12T00:42:59.744Z,21.2
2019-02-12T00:43:56.484Z,21.2
2019-02-12T00:44:56.953Z,21.2
2019-02-12T00:46:06.937Z,21.2
2019-02-12T00:47:07.209Z,21.2
2019-02-12T00:48:05.880Z,21.1
2019-02-12T00:49:04.092Z,21.1
2019-02-12T00:50:03.249Z,21.1
2019-02-12T00:51:00.360Z,21.1
2019-02-12T00:51:59.795Z,21.1
2019-02-12T00:52:55.633Z,21.1
2019-02-12T00:54:04.344Z,21.1
2019-02-12T00:54:54.229Z,21.1
2019-02-12T00:55:49.988Z,21.1
2019-02-12T00:56:46.735Z,21.1
2019-02-12T00:57:47.504Z,21
2019-02-12T00:58:43.617Z,21
2019-02-12T00:59:41.078Z,21
2019-02-12T01:00:39.722Z,21
2019-02-12T01:01:37.198Z,21
2019-02-12T01:02:35.614Z,21
2019-02-12T01:03:33.371Z,21
2019-02-12T01:04:32.810Z,21
2019-02-12T01:05:30.659Z,21
2019-02-12T01:06:27.091Z,21
2019-02-12T01:07:24.077Z,20.9
2019-02-12T01:08:19.997Z,21
2019-02-12T01:09:18.150Z,20.9
2019-02-12T01:10:14.981Z,20.9
2019-02-12T01:11:21.605Z,20.9
2019-02-12T01:12:18.348Z,20.9
2019-02-12T01:13:14.283Z,20.9
2019-02-12T01:14:10.444Z,20.9
2019-02-12T01:15:07.026Z,20.9
2019-02-12T01:16:03.979Z,20.9
2019-02-12T01:17:00.572Z,20.9
2019-02-12T01:17:57.977Z,20.8
2019-02-12T01:19:00.887Z,20.8
2019-02-12T01:19:56.888Z,20.8
2019-02-12T01:20:52.952Z,20.8
2019-02-12T01:21:50.298Z,20.8
2019-02-12T01:22:47.846Z,20.8
2019-02-12T01:23:44.333Z,20.8
2019-02-12T01:24:40.193Z,20.8
2019-02-12T01:25:36.080Z,20.8
2019-02-12T01:26:51.177Z,20.7
2019-02-12T01:27:47.101Z,20.7
2019-02-12T01:28:45.432Z,20.7
2019-02-12T01:29:43.403Z,20.7
2019-02-12T01:30:41.706Z,20.7
2019-02-12T01:31:43.242Z,20.7
2019-02-12T01:32:41.110Z,20.7
2019-02-12T01:33:40.433Z,20.7
2019-02-12T01:34:43.907Z,20.7
2019-02-12T01:35:40.640Z,20.7
2019-02-12T01:36:37.978Z,20.6
2019-02-12T01:37:38.280Z,20.6
2019-02-12T01:38:35.245Z,20.6
2019-02-12T01:39:33.703Z,20.6
2019-02-12T01:40:33.272Z,20.6
2019-02-12T01:41:26.530Z,20.6
2019-02-12T01:42:25.240Z,20.6
2019-02-12T01:43:26.283Z,20.6
2019-02-12T01:44:22.724Z,20.6
2019-02-12T01:45:21.979Z,20.6
2019-02-12T01:46:19.120Z,20.6
2019-02-12T01:47:14.924Z,20.6
2019-02-12T01:48:11.102Z,20.6
2019-02-12T01:49:06.958Z,20.6
2019-02-12T01:50:19.183Z,20.6
2019-02-12T01:51:17.240Z,20.6
2019-02-12T01:52:16.281Z,20.5
2019-02-12T01:53:16.435Z,20.5
2019-02-12T01:54:13.755Z,20.5
2019-02-12T01:55:16.726Z,20.5
2019-02-12T01:56:19.522Z,20.5
2019-02-12T01:57:16.891Z,20.5
2019-02-12T01:58:14.986Z,20.5
2019-02-12T01:59:11.020Z,20.5
2019-02-12T02:00:12.536Z,20.5
2019-02-12T02:01:12.576Z,20.5
2019-02-12T02:02:20.082Z,20.5
2019-02-12T02:03:16.355Z,20.4
2019-02-12T02:04:13.005Z,20.4
2019-02-12T02:05:09.043Z,20.5
2019-02-12T02:06:06.845Z,20.4
2019-02-12T02:07:04.028Z,20.4
2019-02-12T02:08:01.681Z,20.4
2019-02-12T02:08:58.164Z,20.4
2019-02-12T02:09:55.579Z,20.4
2019-02-12T02:10:51.337Z,20.4
2019-02-12T02:11:47.867Z,20.4
2019-02-12T02:12:45.435Z,20.4
2019-02-12T02:13:41.685Z,20.4
2019-02-12T02:14:42.293Z,20.4
2019-02-12T02:15:41.153Z,20.4
2019-02-12T02:16:38.020Z,20.4
2019-02-12T02:17:33.756Z,20.4
2019-02-12T02:18:33.578Z,20.4
2019-02-12T02:19:30.176Z,20.3
2019-02-12T02:20:26.704Z,20.3
2019-02-12T02:21:22.922Z,20.3
2019-02-12T02:22:18.635Z,20.3
2019-02-12T02:23:15.654Z,20.3
2019-02-12T02:24:11.387Z,20.3
2019-02-12T02:25:10.536Z,20.3
2019-02-12T02:26:07.678Z,20.3
2019-02-12T02:27:06.701Z,20.3
2019-02-12T02:28:09.126Z,20.3
2019-02-12T02:29:06.773Z,20.3
2019-02-12T02:30:05.744Z,20.3
2019-02-12T02:31:02.311Z,20.3
2019-02-12T02:32:00.876Z,20.3
2019-02-12T02:32:57.589Z,20.2
2019-02-12T02:33:56.530Z,20.2
2019-02-12T02:35:04.104Z,20.3
2019-02-12T02:36:02.247Z,20.2
2019-02-12T02:37:02.393Z,20.2
2019-02-12T02:37:59.013Z,20.3
2019-02-12T02:38:59.307Z,20.2
2019-02-12T02:39:56.526Z,20.2
2019-02-12T02:40:55.167Z,20.2
2019-02-12T02:41:54.059Z,20.2
2019-02-12T02:42:54.154Z,20.2
2019-02-12T02:43:50.114Z,20.2
2019-02-12T02:44:47.475Z,20.2
2019-02-12T02:45:43.395Z,20.2
2019-02-12T02:46:42.049Z,20.2
2019-02-12T02:47:42.523Z,20.2
2019-02-12T02:48:38.903Z,20.2
2019-02-12T02:49:39.725Z,20.2
2019-02-12T02:50:40.678Z,20.1
2019-02-12T02:51:36.476Z,20.1
2019-02-12T02:52:33.314Z,20.1
2019-02-12T02:53:32.039Z,20.1
2019-02-12T02:54:28.263Z,20.1
2019-02-12T02:55:30.169Z,20.1
2019-02-12T02:56:28.208Z,20.1
2019-02-12T02:57:26.105Z,20.1
2019-02-12T02:58:27.851Z,20.1
2019-02-12T02:59:23.657Z,20.1
2019-02-12T03:00:19.835Z,20.1
2019-02-12T03:01:20.235Z,20.1
2019-02-12T03:02:16.019Z,20.1
2019-02-12T03:03:17.382Z,20.1
2019-02-12T03:04:14.456Z,20.1
2019-02-12T03:05:11.157Z,20.1
2019-02-12T03:06:07.014Z,20
2019-02-12T03:07:06.307Z,20.1
2019-02-12T03:08:03.630Z,20
2019-02-12T03:09:00.927Z,20
2019-02-12T03:10:00.423Z,20
2019-02-12T03:10:57.611Z,20
2019-02-12T03:11:53.928Z,20
2019-02-12T03:12:51.989Z,20
2019-02-12T03:13:55.114Z,20
2019-02-12T03:14:52.226Z,20
2019-02-12T03:15:50.380Z,20
2019-02-12T03:16:48.048Z,20
2019-02-12T03:17:46.491Z,20
2019-02-12T03:18:54.008Z,20
2019-02-12T03:19:55.729Z,20
2019-02-12T03:20:56.682Z,20
2019-02-12T03:22:03.765Z,20
2019-02-12T03:22:56.137Z,19.9
2019-02-12T03:23:51.989Z,20
2019-02-12T03:24:47.625Z,19.9
2019-02-12T03:25:47.241Z,19.9
2019-02-12T03:26:47.193Z,19.9
2019-02-12T03:27:47.329Z,19.9
2019-02-12T03:28:45.279Z,19.9
2019-02-12T03:29:43.815Z,19.9
2019-02-12T03:30:44.087Z,19.9
2019-02-12T03:31:41.170Z,19.9
2019-02-12T03:32:36.745Z,19.9
2019-02-12T03:33:33.453Z,19.9
2019-02-12T03:34:31.474Z,19.9
2019-02-12T03:35:28.924Z,19.9
2019-02-12T03:36:26.520Z,19.9
2019-02-12T03:37:22.918Z,19.9
2019-02-12T03:38:19.164Z,19.9
2019-02-12T03:39:14.718Z,19.9
2019-02-12T03:40:16.672Z,19.9
2019-02-12T03:41:16.483Z,19.9
2019-02-12T03:42:21.034Z,19.8
2019-02-12T03:43:16.969Z,19.8
2019-02-12T03:44:13.622Z,19.8
2019-02-12T03:45:09.150Z,19.8
2019-02-12T03:46:11.687Z,19.8
2019-02-12T03:47:14.439Z,19.8
2019-02-12T03:48:12.421Z,19.8
2019-02-12T03:49:09.419Z,19.8
2019-02-12T03:50:05.397Z,19.8
2019-02-12T03:51:03.848Z,19.8
2019-02-12T03:52:12.668Z,19.8
2019-02-12T03:52:13.031Z,19.8
2019-02-12T03:53:02.879Z,19.8
2019-02-12T03:54:00.556Z,19.8
2019-02-12T03:55:07.731Z,19.8
2019-02-12T03:56:04.367Z,19.8
2019-02-12T03:57:02.494Z,19.8
2019-02-12T03:58:01.199Z,19.8
2019-02-12T03:58:59.440Z,19.8
2019-02-12T03:59:56.415Z,19.8
2019-02-12T04:00:52.740Z,19.8
2019-02-12T04:01:54.206Z,19.8
2019-02-12T04:02:55.152Z,19.8
2019-02-12T04:04:01.049Z,19.8
2019-02-12T04:05:00.233Z,19.7
2019-02-12T04:05:56.906Z,19.7
2019-02-12T04:06:52.646Z,19.7
2019-02-12T04:07:50.155Z,19.7
2019-02-12T04:08:47.410Z,19.7
2019-02-12T04:09:44.244Z,19.7
2019-02-12T04:10:48.519Z,19.7
2019-02-12T04:11:44.002Z,19.7
2019-02-12T04:12:43.679Z,19.7
2019-02-12T04:13:43.637Z,19.7
2019-02-12T04:14:40.430Z,19.7
2019-02-12T04:15:37.616Z,19.7
2019-02-12T04:16:34.049Z,19.7
2019-02-12T04:17:34.767Z,19.7
2019-02-12T04:18:41.520Z,19.7
2019-02-12T04:19:44.578Z,19.7
2019-02-12T04:20:43.716Z,19.7
2019-02-12T04:21:39.263Z,19.6
2019-02-12T04:22:37.853Z,19.7
2019-02-12T04:23:33.416Z,19.6
2019-02-12T04:24:31.059Z,19.6
2019-02-12T04:25:29.715Z,19.7
2019-02-12T04:26:27.998Z,19.6
2019-02-12T04:27:23.554Z,19.7
2019-02-12T04:28:19.509Z,19.7
2019-02-12T04:29:15.008Z,19.7
2019-02-12T04:30:10.477Z,19.6
2019-02-12T04:31:06.361Z,19.6
2019-02-12T04:32:02.741Z,19.6
2019-02-12T04:33:02.011Z,19.6
2019-02-12T04:34:04.491Z,19.6
2019-02-12T04:35:00.303Z,19.6
2019-02-12T04:36:00.325Z,19.6
2019-02-12T04:37:00.519Z,19.6
2019-02-12T04:37:58.012Z,19.6
2019-02-12T04:38:55.514Z,19.6
2019-02-12T04:39:52.727Z,19.6
2019-02-12T04:40:48.527Z,19.6
2019-02-12T04:41:45.055Z,19.6
2019-02-12T04:42:48.891Z,19.6
2019-02-12T04:43:46.435Z,19.6
2019-02-12T04:44:46.811Z,19.6
2019-02-12T04:45:55.881Z,19.5
2019-02-12T04:46:54.602Z,19.6
2019-02-12T04:47:57.690Z,19.5
2019-02-12T04:48:54.410Z,19.6
2019-02-12T04:49:55.701Z,19.5
2019-02-12T04:51:08.345Z,19.6
2019-02-12T04:52:08.094Z,19.5
2019-02-12T04:53:07.280Z,19.5
2019-02-12T04:54:08.254Z,19.5
2019-02-12T04:55:06.136Z,19.5
2019-02-12T04:56:04.667Z,19.5
2019-02-12T04:57:01.387Z,19.5
2019-02-12T04:57:59.032Z,19.5
2019-02-12T04:58:56.256Z,19.5
2019-02-12T04:59:53.968Z,19.5
2019-02-12T05:00:59.528Z,19.5
2019-02-12T05:01:57.572Z,19.5
2019-02-12T05:02:50.337Z,19.5
2019-02-12T05:03:46.213Z,19.5
2019-02-12T05:04:43.158Z,19.5
2019-02-12T05:05:40.648Z,19.5
2019-02-12T05:06:37.432Z,19.5
2019-02-12T05:07:39.278Z,19.5
2019-02-12T05:08:37.167Z,19.5
2019-02-12T05:09:33.447Z,19.5
2019-02-12T05:10:28.968Z,19.5
2019-02-12T05:11:29.883Z,19.4
2019-02-12T05:12:25.489Z,19.4
2019-02-12T05:13:32.725Z,19.4
2019-02-12T05:14:30.308Z,19.5
2019-02-12T05:15:27.253Z,19.4
2019-02-12T05:16:24.955Z,19.4
2019-02-12T05:17:20.504Z,19.4
2019-02-12T05:18:20.646Z,19.4
2019-02-12T05:19:26.222Z,19.4
2019-02-12T05:20:21.744Z,19.4
2019-02-12T05:21:19.106Z,19.4
2019-02-12T05:22:16.147Z,19.4
2019-02-12T05:23:13.133Z,19.4
2019-02-12T05:24:11.278Z,19.4
2019-02-12T05:25:22.190Z,19.4
2019-02-12T05:26:18.521Z,19.4
2019-02-12T05:27:17.652Z,19.4
2019-02-12T05:28:14.274Z,19.4
2019-02-12T05:29:13.227Z,19.4
2019-02-12T05:30:09.595Z,19.4
2019-02-12T05:31:06.305Z,19.4
2019-02-12T05:32:09.739Z,19.4
2019-02-12T05:33:12.037Z,19.4
2019-02-12T05:34:12.850Z,19.4
2019-02-12T05:35:10.840Z,19.4
2019-02-12T05:36:08.418Z,19.4
2019-02-12T05:37:06.974Z,19.4
2019-02-12T05:38:02.963Z,19.3
2019-02-12T05:38:58.433Z,19.4
2019-02-12T05:39:54.857Z,19.4
2019-02-12T05:40:55.818Z,19.3
2019-02-12T05:41:52.451Z,19.3
2019-02-12T05:42:54.294Z,19.3
2019-02-12T05:43:52.927Z,19.3
2019-02-12T05:44:55.962Z,19.3
2019-02-12T05:45:54.082Z,19.3
2019-02-12T05:46:50.952Z,19.3
2019-02-12T05:47:54.520Z,19.3
2019-02-12T05:48:58.967Z,19.3
2019-02-12T05:49:58.030Z,19.3
2019-02-12T05:50:53.774Z,19.3
2019-02-12T05:51:49.379Z,19.3
2019-02-12T05:52:53.821Z,19.3
2019-02-12T05:52:54.474Z,19.3
2019-02-12T05:53:42.493Z,19.3
2019-02-12T05:54:37.975Z,19.3
2019-02-12T05:55:36.894Z,19.3
2019-02-12T05:56:41.479Z,19.3
2019-02-12T05:57:42.397Z,19.3
2019-02-12T05:58:38.170Z,19.3
2019-02-12T05:59:35.596Z,19.3
2019-02-12T06:00:36.737Z,19.2
2019-02-12T06:01:34.213Z,19.2
2019-02-12T06:02:31.550Z,19.2
2019-02-12T06:03:27.440Z,19.2
2019-02-12T06:04:24.239Z,19.3
2019-02-12T06:05:22.742Z,19.2
2019-02-12T06:06:22.818Z,19.2
2019-02-12T06:07:21.496Z,19.2
2019-02-12T06:08:18.153Z,19.2
2019-02-12T06:09:14.458Z,19.3
2019-02-12T06:10:11.043Z,19.2
2019-02-12T06:11:15.116Z,19.2
2019-02-12T06:12:13.419Z,19.2
2019-02-12T06:13:10.951Z,19.2
2019-02-12T06:14:08.342Z,19.2
2019-02-12T06:15:05.918Z,19.2
2019-02-12T06:16:03.437Z,19.2
2019-02-12T06:17:04.822Z,19.2
2019-02-12T06:18:04.153Z,19.2
2019-02-12T06:19:00.291Z,19.2
2019-02-12T06:19:57.283Z,19.2
2019-02-12T06:20:54.020Z,19.2
2019-02-12T06:21:51.746Z,19.2
2019-02-12T06:22:49.412Z,19.2
2019-02-12T06:23:45.284Z,19.2
2019-02-12T06:24:44.932Z,19.2
2019-02-12T06:25:40.508Z,19.2
2019-02-12T06:26:38.725Z,19.2
2019-02-12T06:27:35.998Z,19.2
2019-02-12T06:28:32.669Z,19.2
2019-02-12T06:29:33.808Z,19.2
2019-02-12T06:30:36.782Z,19.1
2019-02-12T06:31:36.918Z,19.2
2019-02-12T06:32:34.801Z,19.1
2019-02-12T06:33:31.147Z,19.1
2019-02-12T06:34:37.245Z,19.1
2019-02-12T06:35:35.334Z,19.1
2019-02-12T06:36:32.610Z,19.1
2019-02-12T06:37:28.483Z,19.1
2019-02-12T06:38:23.853Z,19.1
2019-02-12T06:39:20.081Z,19.1
2019-02-12T06:40:18.292Z,19.1
2019-02-12T06:41:19.463Z,19.1
2019-02-12T06:42:21.912Z,19.1
2019-02-12T06:43:18.358Z,19.1
2019-02-12T06:44:16.558Z,19.1
2019-02-12T06:45:19.761Z,19.1
2019-02-12T06:46:17.778Z,19.1
2019-02-12T06:47:18.333Z,19.1
2019-02-12T06:49:42.242Z,19.1
2019-02-12T06:50:40.640Z,19.1
2019-02-12T06:51:40.327Z,19.1
2019-02-12T06:52:41.333Z,19.1
2019-02-12T06:53:39.815Z,19.1
2019-02-12T06:54:38.826Z,19.1
2019-02-12T06:55:39.916Z,19.1
2019-02-12T06:56:42.692Z,19
2019-02-12T06:57:40.782Z,19
2019-02-12T06:58:47.077Z,19.1
2019-02-12T06:59:53.181Z,19.1
2019-02-12T07:00:52.057Z,19.1
2019-02-12T07:01:50.774Z,19.1
2019-02-12T07:02:52.531Z,19
2019-02-12T07:03:56.910Z,19
2019-02-12T07:04:55.692Z,19
2019-02-12T07:05:56.263Z,19
2019-02-12T07:06:55.956Z,19
2019-02-12T07:07:56.462Z,19
2019-02-12T07:08:55.100Z,19
2019-02-12T07:09:53.479Z,19
2019-02-12T07:11:00.008Z,19
2019-02-12T07:11:59.615Z,19
2019-02-12T07:12:59.449Z,19
2019-02-12T07:13:57.914Z,19
2019-02-12T07:14:58.199Z,19
2019-02-12T07:15:56.264Z,19
2019-02-12T07:16:54.586Z,19
2019-02-12T07:17:53.495Z,19
2019-02-12T07:18:54.847Z,19
2019-02-12T07:19:58.376Z,19
2019-02-12T07:20:58.151Z,19
2019-02-12T07:21:57.413Z,19
2019-02-12T07:22:56.023Z,19
2019-02-12T07:23:54.420Z,19
2019-02-12T07:24:52.683Z,19
2019-02-12T07:25:56.430Z,19
2019-02-12T07:26:57.552Z,19
2019-02-12T07:27:56.717Z,19
2019-02-12T07:28:56.231Z,19
2019-02-12T07:29:45.578Z,19
2019-02-12T07:30:48.108Z,19
2019-02-12T07:31:51.410Z,19
2019-02-12T07:32:50.048Z,19
2019-02-12T07:33:49.447Z,19
2019-02-12T07:34:48.946Z,19
2019-02-12T07:35:47.576Z,18.9
2019-02-12T07:36:46.801Z,18.9
2019-02-12T07:37:55.259Z,18.9
2019-02-12T07:38:56.485Z,18.9
2019-02-12T07:39:59.662Z,18.9
2019-02-12T07:41:01.071Z,18.9
2019-02-12T07:42:02.890Z,18.9
2019-02-12T07:43:01.108Z,18.9
2019-02-12T07:44:03.905Z,18.9
2019-02-12T07:45:09.230Z,19
2019-02-12T07:46:07.294Z,18.9
2019-02-12T07:47:07.701Z,18.9
2019-02-12T07:48:17.085Z,18.9
2019-02-12T07:49:17.235Z,18.9
2019-02-12T07:50:17.678Z,18.9
2019-02-12T07:51:15.622Z,18.9
2019-02-12T07:52:14.053Z,18.9
2019-02-12T07:53:11.910Z,18.9
2019-02-12T07:54:20.299Z,18.9
2019-02-12T07:55:23.553Z,18.9
2019-02-12T07:56:22.752Z,18.9
2019-02-12T07:57:25.761Z,18.9
2019-02-12T07:58:30.268Z,18.9
2019-02-12T07:59:36.742Z,18.9
2019-02-12T08:00:37.617Z,18.9
2019-02-12T08:01:35.825Z,18.9
2019-02-12T08:02:37.718Z,18.9
2019-02-12T08:03:35.627Z,18.8
2019-02-12T08:04:34.036Z,18.9
2019-02-12T08:05:34.080Z,18.8
2019-02-12T08:06:34.298Z,18.9
2019-02-12T08:07:33.549Z,18.8
2019-02-12T08:08:35.593Z,18.9
2019-02-12T08:09:38.369Z,18.9
2019-02-12T08:10:36.885Z,18.9
2019-02-12T08:11:39.171Z,18.9
2019-02-12T08:12:45.137Z,18.9
2019-02-12T08:13:52.406Z,18.8
2019-02-12T08:14:51.523Z,18.9
2019-02-12T08:15:56.963Z,18.8
2019-02-12T08:16:58.018Z,18.8
2019-02-12T08:17:56.219Z,18.8
2019-02-12T08:18:54.485Z,18.8
2019-02-12T08:19:55.395Z,18.8
2019-02-12T08:20:56.405Z,18.8
2019-02-12T08:21:58.438Z,18.8
2019-02-12T08:23:01.156Z,18.8
2019-02-12T08:24:00.447Z,18.8
2019-02-12T08:25:00.050Z,18.8
2019-02-12T08:26:06.219Z,18.8
2019-02-12T08:27:07.132Z,18.8
2019-02-12T08:28:10.014Z,18.8
2019-02-12T08:29:07.538Z,18.8
2019-02-12T08:30:06.105Z,18.8
2019-02-12T08:31:06.601Z,18.8
2019-02-12T08:32:12.385Z,18.8
2019-02-12T08:33:11.301Z,18.8
2019-02-12T08:34:11.298Z,18.8
2019-02-12T08:35:10.889Z,18.8
2019-02-12T08:36:12.073Z,18.8
2019-02-12T08:37:14.138Z,18.7
2019-02-12T08:38:12.184Z,18.7
2019-02-12T08:39:10.933Z,18.6
2019-02-12T08:40:10.468Z,18.6
2019-02-12T08:41:18.900Z,18.5
2019-02-12T08:42:17.607Z,18.4
2019-02-12T08:43:18.219Z,18.2
2019-02-12T08:44:18.553Z,18.2
2019-02-12T08:45:23.566Z,18
2019-02-12T08:46:34.418Z,17.9
2019-02-12T08:47:33.522Z,17.8
2019-02-12T08:48:31.586Z,17.6
2019-02-12T08:49:30.189Z,17.5
2019-02-12T08:50:29.565Z,17.4
2019-02-12T08:51:30.737Z,17.3
2019-02-12T08:52:31.003Z,17.1
2019-02-12T08:53:33.032Z,17.1
2019-02-12T08:54:32.573Z,16.9
2019-02-12T08:55:36.867Z,16.8
2019-02-12T08:56:33.989Z,16.7
2019-02-12T08:57:33.377Z,16.6
2019-02-12T08:58:31.760Z,16.5
2019-02-12T08:59:41.239Z,16.4
2019-02-12T09:00:41.559Z,16.3
2019-02-12T09:01:46.024Z,16.3
2019-02-12T09:02:48.378Z,16.2
2019-02-12T09:03:47.772Z,16.1
2019-02-12T09:04:46.133Z,16.1
2019-02-12T09:05:45.074Z,16
2019-02-12T09:06:47.921Z,15.9
2019-02-12T09:07:49.792Z,15.8
2019-02-12T09:08:47.550Z,15.8
2019-02-12T09:09:44.760Z,15.7
2019-02-12T09:10:42.862Z,15.7
2019-02-12T09:11:40.197Z,15.6
2019-02-12T09:12:41.641Z,15.6
2019-02-12T09:13:41.743Z,15.5
2019-02-12T09:14:44.396Z,15.4
2019-02-12T09:15:45.036Z,15.4
2019-02-12T09:16:42.161Z,15.3
2019-02-12T09:17:40.206Z,15.3
2019-02-12T09:18:36.933Z,15.2
2019-02-12T09:19:34.448Z,15.2
2019-02-12T09:20:35.773Z,15.1
2019-02-12T09:21:35.727Z,15.1
2019-02-12T09:22:33.958Z,15
2019-02-12T09:23:32.998Z,15
2019-02-12T09:24:29.781Z,15
2019-02-12T09:25:27.095Z,15
2019-02-12T09:26:29.112Z,15
2019-02-12T09:27:27.708Z,15
2019-02-12T09:28:24.810Z,15
2019-02-12T09:29:28.627Z,15.1
2019-02-12T09:30:25.400Z,15.1
2019-02-12T09:31:22.889Z,15.2
2019-02-12T09:32:19.877Z,15.3
2019-02-12T09:33:17.934Z,15.3
2019-02-12T09:34:14.781Z,15.4
2019-02-12T09:35:14.081Z,15.5
2019-02-12T09:36:11.424Z,15.6
2019-02-12T09:37:09.281Z,15.7
2019-02-12T09:38:07.731Z,15.7
2019-02-12T09:39:07.035Z,15.9
2019-02-12T09:40:18.630Z,15.9
2019-02-12T09:40:19.156Z,15.9
2019-02-12T09:41:08.022Z,16.1
2019-02-12T09:42:15.738Z,16.2
2019-02-12T09:43:15.555Z,16.3
2019-02-12T09:44:13.202Z,16.4
2019-02-12T09:45:11.886Z,16.5
2019-02-12T09:46:10.075Z,16.6
2019-02-12T09:47:08.378Z,16.8
2019-02-12T09:48:07.764Z,16.8
2019-02-12T09:49:05.302Z,17
2019-02-12T09:50:04.944Z,17.1
2019-02-12T09:51:02.450Z,17.1
2019-02-12T09:52:00.297Z,17.3
2019-02-12T09:53:03.924Z,17.4
2019-02-12T09:54:08.883Z,17.5
2019-02-12T09:55:03.457Z,17.6
2019-02-12T09:56:02.528Z,17.7
2019-02-12T09:57:01.996Z,17.8
2019-02-12T09:57:59.960Z,17.9
2019-02-12T09:59:03.809Z,17.9
2019-02-12T10:00:02.179Z,18.1
2019-02-12T10:01:00.091Z,18.1
2019-02-12T10:01:59.513Z,18.2
2019-02-12T10:02:58.851Z,18.3
2019-02-12T10:03:57.611Z,18.4
2019-02-12T10:04:57.054Z,18.5
2019-02-12T10:05:55.206Z,18.5
2019-02-12T10:06:58.836Z,18.6
2019-02-12T10:07:57.147Z,18.7
2019-02-12T10:08:55.078Z,18.8
2019-02-12T10:09:53.398Z,18.8
2019-02-12T10:10:52.824Z,18.9
2019-02-12T10:12:02.190Z,19
2019-02-12T10:13:01.653Z,19.1
2019-02-12T10:13:59.971Z,19.1
2019-02-12T10:14:58.191Z,19.2
2019-02-12T10:15:59.226Z,19.3
2019-02-12T10:17:00.682Z,19.3
2019-02-12T10:18:02.167Z,19.4
2019-02-12T10:19:03.001Z,19.5
2019-02-12T10:20:01.286Z,19.6
2019-02-12T10:21:00.595Z,19.6
2019-02-12T10:22:01.957Z,19.7
2019-02-12T10:23:06.473Z,19.7
2019-02-12T10:24:07.373Z,19.8
2019-02-12T10:25:08.086Z,19.9
2019-02-12T10:26:09.127Z,19.9
2019-02-12T10:27:08.245Z,20
2019-02-12T10:28:08.723Z,20
2019-02-12T10:29:07.382Z,20.1
2019-02-12T10:30:13.064Z,20.1
2019-02-12T10:31:12.105Z,20.2
2019-02-12T10:32:11.094Z,20.3
2019-02-12T10:33:12.025Z,20.3
2019-02-12T10:34:12.924Z,20.4
2019-02-12T10:35:12.906Z,20.4
2019-02-12T10:36:12.679Z,20.5
2019-02-12T10:37:11.997Z,20.5
2019-02-12T10:39:15.206Z,20.6
2019-02-12T10:40:14.512Z,20.7
2019-02-12T10:41:18.008Z,20.7
2019-02-12T10:42:17.974Z,20.8
2019-02-12T10:43:17.391Z,20.8
2019-02-12T10:44:21.402Z,20.9
2019-02-12T10:45:20.096Z,20.9
2019-02-12T10:46:21.228Z,21
2019-02-12T10:47:19.935Z,21
2019-02-12T10:48:19.534Z,21.1
2019-02-12T10:49:18.465Z,21.1
2019-02-12T10:50:17.417Z,21.2
2019-02-12T10:51:17.776Z,21.2
2019-02-12T10:52:17.562Z,21.3
2019-02-12T10:53:16.887Z,21.3
2019-02-12T10:54:27.797Z,21.4
2019-02-12T10:54:28.046Z,21.4
2019-02-12T10:55:26.771Z,21.4
2019-02-12T10:56:27.723Z,21.4
2019-02-12T10:57:26.782Z,21.5
2019-02-12T10:58:25.871Z,21.5
2019-02-12T10:59:27.542Z,21.5
2019-02-12T11:00:27.537Z,21.6
2019-02-12T11:01:26.581Z,21.6
2019-02-12T11:02:27.685Z,21.6
2019-02-12T11:03:30.721Z,21.7
2019-02-12T11:04:31.097Z,21.7
2019-02-12T11:05:31.069Z,21.8
2019-02-12T11:06:33.195Z,21.8
2019-02-12T11:07:32.773Z,21.8
2019-02-12T11:08:33.018Z,21.9
2019-02-12T11:09:32.290Z,21.9
2019-02-12T11:10:31.286Z,21.9
2019-02-12T11:11:34.764Z,22
2019-02-12T11:12:35.070Z,22
2019-02-12T11:13:37.627Z,22
2019-02-12T11:14:38.952Z,22
2019-02-12T11:15:38.775Z,22.1
2019-02-12T11:16:41.139Z,22.1
2019-02-12T11:17:44.529Z,22.1
2019-02-12T11:18:47.730Z,22.1
2019-02-12T11:19:48.172Z,22.1
2019-02-12T11:20:50.938Z,22.1
2019-02-12T11:21:52.225Z,22.1
2019-02-12T11:22:52.889Z,22.1
2019-02-12T11:23:53.643Z,22.1
2019-02-12T11:25:00.893Z,22.1
2019-02-12T11:26:03.113Z,22.2
2019-02-12T11:27:03.529Z,22.2
2019-02-12T11:28:05.258Z,22.2
2019-02-12T11:29:05.389Z,22.2
2019-02-12T11:30:08.612Z,22.2
2019-02-12T11:31:11.119Z,22.2
2019-02-12T11:32:13.275Z,22.2
2019-02-12T11:33:13.953Z,22.2
2019-02-12T11:34:13.966Z,22.2
2019-02-12T11:35:13.044Z,22.2
2019-02-12T11:36:13.175Z,22.2
2019-02-12T11:37:13.996Z,22.2
2019-02-12T11:38:16.386Z,22.2
2019-02-12T11:39:16.561Z,22.2
2019-02-12T11:40:15.962Z,22.2
2019-02-12T11:41:18.512Z,22.2
2019-02-12T11:42:20.179Z,22.2
2019-02-12T11:43:19.247Z,22.2
2019-02-12T11:44:18.649Z,22.2
2019-02-12T11:45:21.291Z,22.2
2019-02-12T11:46:22.252Z,22.2
2019-02-12T11:47:22.408Z,22.2
2019-02-12T11:48:22.931Z,22.2
2019-02-12T11:49:23.892Z,22.2
2019-02-12T11:50:24.619Z,22.1
2019-02-12T11:51:24.563Z,22.1
2019-02-12T11:52:28.321Z,22.1
2019-02-12T11:53:28.300Z,22.1
2019-02-12T11:54:30.737Z,22.1
2019-02-12T11:55:29.975Z,22.1
2019-02-12T11:56:29.556Z,22
2019-02-12T11:57:32.947Z,22
2019-02-12T11:58:34.658Z,22
2019-02-12T11:59:35.326Z,22
2019-02-12T12:00:34.946Z,22
2019-02-12T12:01:34.407Z,22
2019-02-12T12:02:40.670Z,21.9
2019-02-12T12:02:42.081Z,21.9
2019-02-12T12:03:34.501Z,21.9
2019-02-12T12:04:34.211Z,21.9
2019-02-12T12:05:34.872Z,21.9
2019-02-12T12:06:38.729Z,21.8
2019-02-12T12:07:39.566Z,21.8
2019-02-12T12:08:39.131Z,21.8
2019-02-12T12:09:38.330Z,21.8
2019-02-12T12:10:38.079Z,21.7
2019-02-12T12:11:40.621Z,21.7
2019-02-12T12:12:41.876Z,21.7
2019-02-12T12:13:42.662Z,21.7
2019-02-12T12:14:44.481Z,21.7
2019-02-12T12:15:45.963Z,21.6
2019-02-12T12:16:45.244Z,21.6
2019-02-12T12:17:44.832Z,21.6
2019-02-12T12:18:47.305Z,21.6
2019-02-12T12:19:49.598Z,21.5
2019-02-12T12:20:55.530Z,21.5
2019-02-12T12:21:56.807Z,21.5
2019-02-12T12:22:56.064Z,21.5
2019-02-12T12:23:56.635Z,21.5
2019-02-12T12:24:56.357Z,21.4
2019-02-12T12:25:56.123Z,21.4
2019-02-12T12:26:59.128Z,21.4
2019-02-12T12:27:58.063Z,21.4
2019-02-12T12:28:59.489Z,21.4
2019-02-12T12:29:59.180Z,21.4
2019-02-12T12:30:59.520Z,21.4
2019-02-12T12:31:59.633Z,21.4
2019-02-12T12:33:03.828Z,21.4
2019-02-12T12:34:09.683Z,21.4
2019-02-12T12:35:12.204Z,21.4
2019-02-12T12:36:11.114Z,21.4
2019-02-12T12:37:13.278Z,21.4
2019-02-12T12:38:13.303Z,21.5
2019-02-12T12:39:13.973Z,21.5
2019-02-12T12:40:19.194Z,21.5
2019-02-12T12:41:20.689Z,21.5
2019-02-12T12:42:20.757Z,21.5
2019-02-12T12:43:24.285Z,21.6
2019-02-12T12:44:24.666Z,21.6
2019-02-12T12:45:26.564Z,21.6
2019-02-12T12:46:27.410Z,21.6
2019-02-12T12:47:26.462Z,21.6
2019-02-12T12:48:25.946Z,21.7
2019-02-12T12:49:27.359Z,21.7
2019-02-12T12:50:30.954Z,21.7
2019-02-12T12:51:32.420Z,21.7
2019-02-12T12:52:41.707Z,21.7
2019-02-12T12:53:46.732Z,21.8
2019-02-12T12:54:46.519Z,21.8
2019-02-12T12:55:46.563Z,21.8
2019-02-12T12:56:47.097Z,21.8
2019-02-12T12:57:46.088Z,21.8
2019-02-12T12:58:51.586Z,21.9
2019-02-12T12:59:51.643Z,21.9
2019-02-12T13:00:50.982Z,21.9
2019-02-12T13:01:50.212Z,21.9
2019-02-12T13:02:56.713Z,22
2019-02-12T13:03:57.041Z,22
2019-02-12T13:04:56.429Z,22
2019-02-12T13:05:55.571Z,22
2019-02-12T13:07:01.104Z,22
2019-02-12T13:08:04.857Z,22
2019-02-12T13:09:11.645Z,22.1
2019-02-12T13:10:11.459Z,22.1
2019-02-12T13:11:11.322Z,22.1
2019-02-12T13:12:13.393Z,22.1
2019-02-12T13:13:14.393Z,22.1
2019-02-12T13:14:13.963Z,22.1
2019-02-12T13:15:15.176Z,22.2
2019-02-12T13:16:17.431Z,22.1
2019-02-12T13:17:16.721Z,22.2